createdAt,value
2023-04-06T00:00:59.041Z,4.10
2023-04-06T00:03:26.421Z,4.10
2023-04-06T00:05:54.131Z,4.10
2023-04-06T00:08:22.443Z,4.00
2023-04-06T00:10:49.293Z,4.00
2023-04-06T00:13:16.200Z,4.00
2023-04-06T00:15:43.093Z,4.00
2023-04-06T00:18:10.201Z,4.00
2023-04-06T00:20:37.198Z,3.90
2023-04-06T00:23:04.245Z,3.90
2023-04-06T00:25:31.229Z,3.90
2023-04-06T00:27:58.115Z,3.90
2023-04-06T00:30:24.956Z,3.80
2023-04-06T00:32:51.848Z,3.80
2023-04-06T00:35:18.800Z,3.70
2023-04-06T00:37:49.216Z,3.70
2023-04-06T00:40:16.614Z,3.70
2023-04-06T00:42:43.655Z,3.70
2023-04-06T00:45:11.746Z,3.70
2023-04-06T00:47:38.857Z,3.60
2023-04-06T00:50:06.653Z,3.60
2023-04-06T00:52:35.530Z,3.60
2023-04-06T00:55:03.976Z,3.60
2023-04-06T00:57:32.408Z,3.60
2023-04-06T00:59:59.710Z,3.50
2023-04-06T01:02:27.182Z,3.60
2023-04-06T01:04:55.382Z,3.50
2023-04-06T01:07:22.470Z,3.60
2023-04-06T01:09:49.519Z,3.50
2023-04-06T01:12:16.555Z,3.50
2023-04-06T01:14:43.507Z,3.50
2023-04-06T01:17:10.753Z,3.60
2023-04-06T01:19:38.238Z,3.60
2023-04-06T01:22:05.558Z,3.60
2023-04-06T01:24:33.181Z,3.50
2023-04-06T01:27:00.295Z,3.60
2023-04-06T01:29:27.404Z,3.50
2023-04-06T01:31:54.383Z,3.50
2023-04-06T01:34:21.444Z,3.50
2023-04-06T01:36:48.301Z,3.50
2023-04-06T01:39:15.664Z,3.60
2023-04-06T01:41:42.554Z,3.60
2023-04-06T01:44:09.469Z,3.50
2023-04-06T01:46:36.405Z,3.50
2023-04-06T01:49:03.253Z,3.50
2023-04-06T01:51:31.116Z,3.60
2023-04-06T01:53:58.063Z,3.50
2023-04-06T01:56:25.563Z,3.40
2023-04-06T01:58:52.480Z,3.40
2023-04-06T02:01:19.394Z,3.40
2023-04-06T02:03:46.247Z,3.40
2023-04-06T02:06:13.085Z,3.30
2023-04-06T02:08:39.970Z,3.30
2023-04-06T02:11:06.843Z,3.30
2023-04-06T02:13:34.142Z,3.30
2023-04-06T02:16:01.078Z,3.30
2023-04-06T02:18:29.146Z,3.30
2023-04-06T02:20:56.760Z,3.30
2023-04-06T02:23:23.729Z,3.30
2023-04-06T02:25:51.247Z,3.20
2023-04-06T02:28:18.184Z,3.20
2023-04-06T02:30:45.280Z,3.20
2023-04-06T02:33:12.124Z,3.20
2023-04-06T02:35:39.158Z,3.20
2023-04-06T02:38:06.076Z,3.20
2023-04-06T02:40:32.965Z,3.20
2023-04-06T02:42:59.825Z,3.10
2023-04-06T02:45:27.346Z,3.10
2023-04-06T02:47:54.273Z,3.10
2023-04-06T02:50:21.224Z,3.10
2023-04-06T02:52:48.088Z,3.00
2023-04-06T02:55:15.632Z,3.00
2023-04-06T02:57:42.519Z,3.00
2023-04-06T03:00:10.500Z,3.00
2023-04-06T03:02:37.486Z,2.90
2023-04-06T03:05:04.924Z,3.00
2023-04-06T03:07:31.821Z,3.00
2023-04-06T03:09:58.745Z,2.90
2023-04-06T03:12:25.692Z,2.90
2023-04-06T03:14:52.529Z,3.00
2023-04-06T03:17:19.389Z,3.00
2023-04-06T03:19:46.301Z,2.90
2023-04-06T03:22:13.120Z,2.90
2023-04-06T03:24:40.009Z,2.90
2023-04-06T03:27:07.292Z,2.90
2023-04-06T03:29:34.223Z,2.90
2023-04-06T03:32:01.125Z,2.80
2023-04-06T03:34:28.191Z,2.80
2023-04-06T03:37:07.094Z,2.80
2023-04-06T03:39:37.272Z,2.80
2023-04-06T03:42:04.288Z,2.80
2023-04-06T03:44:31.333Z,2.80
2023-04-06T03:46:58.232Z,2.70
2023-04-06T03:49:25.243Z,2.70
2023-04-06T03:51:52.184Z,2.70
2023-04-06T03:54:19.015Z,2.70
2023-04-06T03:56:46.037Z,2.70
2023-04-06T03:59:12.972Z,2.60
2023-04-06T04:01:40.455Z,2.60
2023-04-06T04:04:07.375Z,2.60
2023-04-06T04:06:34.277Z,2.60
2023-04-06T04:09:01.122Z,2.60
2023-04-06T04:11:27.953Z,2.50
2023-04-06T04:13:54.994Z,2.50
2023-04-06T04:16:21.987Z,2.40
2023-04-06T04:18:49.769Z,2.40
2023-04-06T04:21:16.691Z,2.50
2023-04-06T04:23:43.527Z,2.50
2023-04-06T04:26:11.098Z,2.50
2023-04-06T04:28:37.996Z,2.50
2023-04-06T04:31:04.987Z,2.60
2023-04-06T04:33:31.844Z,2.50
2023-04-06T04:35:58.738Z,2.60
2023-04-06T04:38:25.727Z,2.60
2023-04-06T04:40:52.672Z,2.60
2023-04-06T04:43:19.586Z,2.60
2023-04-06T04:45:46.465Z,2.70
2023-04-06T04:48:13.605Z,2.60
2023-04-06T04:50:40.750Z,2.60
2023-04-06T04:53:07.606Z,2.50
2023-04-06T04:55:34.647Z,2.60
2023-04-06T04:58:01.802Z,2.60
2023-04-06T05:00:28.742Z,2.50
2023-04-06T05:02:55.668Z,2.50
2023-04-06T05:05:22.658Z,2.50
2023-04-06T05:07:49.524Z,2.50
2023-04-06T05:10:16.524Z,2.50
2023-04-06T05:12:43.584Z,2.50
2023-04-06T05:15:11.244Z,2.50
2023-04-06T05:17:38.347Z,2.50
2023-04-06T05:20:08.566Z,2.50
2023-04-06T05:22:35.454Z,2.50
2023-04-06T05:25:03.728Z,2.50
2023-04-06T05:27:30.688Z,2.50
2023-04-06T05:29:57.962Z,2.60
2023-04-06T05:32:25.774Z,2.60
2023-04-06T05:34:52.912Z,2.70
2023-04-06T05:37:19.913Z,2.80
2023-04-06T05:39:46.793Z,2.80
2023-04-06T05:42:13.696Z,2.90
2023-04-06T05:44:41.351Z,3.00
2023-04-06T05:47:08.304Z,3.10
2023-04-06T05:49:35.993Z,3.10
2023-04-06T05:52:02.929Z,3.20
2023-04-06T05:54:29.857Z,3.20
2023-04-06T05:56:56.825Z,3.30
2023-04-06T05:59:24.828Z,3.30
2023-04-06T06:01:51.799Z,3.40
2023-04-06T06:04:18.783Z,3.40
2023-04-06T06:06:45.728Z,3.50
2023-04-06T06:09:12.645Z,3.50
2023-04-06T06:11:39.749Z,3.60
2023-04-06T06:14:06.652Z,3.60
2023-04-06T06:16:34.003Z,3.70
2023-04-06T06:19:01.108Z,3.80
2023-04-06T06:21:28.075Z,3.90
2023-04-06T06:23:55.640Z,4.00
2023-04-06T06:26:22.827Z,4.10
2023-04-06T06:28:49.822Z,4.10
2023-04-06T06:31:17.817Z,4.30
2023-04-06T06:33:44.687Z,4.30
2023-04-06T06:36:11.630Z,4.50
2023-04-06T06:38:39.217Z,4.50
2023-04-06T06:41:06.135Z,4.70
2023-04-06T06:43:32.996Z,4.70
2023-04-06T06:46:00.128Z,4.80
2023-04-06T06:48:27.341Z,4.90
2023-04-06T06:50:54.506Z,5.00
2023-04-06T06:53:21.674Z,5.10
2023-04-06T06:55:49.963Z,5.10
2023-04-06T06:58:20.955Z,5.20
2023-04-06T07:00:48.223Z,5.30
2023-04-06T07:03:15.403Z,5.50
2023-04-06T07:05:51.069Z,5.60
2023-04-06T07:08:18.050Z,5.80
2023-04-06T07:10:44.959Z,6.00
2023-04-06T07:13:12.156Z,6.20
2023-04-06T07:15:39.254Z,6.30
2023-04-06T07:18:06.287Z,6.50
2023-04-06T07:20:33.232Z,6.60
2023-04-06T07:23:00.302Z,6.80
2023-04-06T07:25:27.244Z,6.90
2023-04-06T07:27:54.151Z,7.10
2023-04-06T07:30:22.884Z,7.40
2023-04-06T07:32:50.280Z,7.60
2023-04-06T07:35:17.515Z,7.80
2023-04-06T07:37:44.426Z,8.10
2023-04-06T07:40:11.706Z,8.30
2023-04-06T07:42:38.663Z,8.50
2023-04-06T07:45:06.102Z,8.80
2023-04-06T07:47:33.085Z,8.90
2023-04-06T07:50:00.326Z,9.10
2023-04-06T07:52:27.223Z,9.30
2023-04-06T07:54:54.232Z,9.40
2023-04-06T07:57:21.087Z,9.60
2023-04-06T07:59:47.982Z,9.70
2023-04-06T08:02:14.960Z,9.90
2023-04-06T08:04:43.371Z,10.10
2023-04-06T08:07:11.806Z,10.40
2023-04-06T08:09:38.743Z,10.80
2023-04-06T08:12:05.819Z,11.30
2023-04-06T08:14:32.749Z,11.80
2023-04-06T08:16:59.630Z,12.30
2023-04-06T08:19:26.471Z,12.80
2023-04-06T08:21:53.641Z,13.30
2023-04-06T08:24:20.554Z,13.80
2023-04-06T08:26:47.510Z,14.30
2023-04-06T08:29:14.431Z,14.70
2023-04-06T08:31:41.486Z,14.80
2023-04-06T08:34:10.175Z,14.90
2023-04-06T08:36:38.427Z,15.00
2023-04-06T08:39:05.695Z,15.20
2023-04-06T08:41:33.089Z,15.50
2023-04-06T08:44:04.053Z,15.80
2023-04-06T08:46:31.983Z,16.00
2023-04-06T08:49:02.346Z,16.30
2023-04-06T08:51:31.399Z,16.60
2023-04-06T08:54:00.745Z,17.00
2023-04-06T08:56:29.439Z,17.40
2023-04-06T08:58:57.423Z,17.70
2023-04-06T09:01:28.439Z,18.00
2023-04-06T09:04:08.824Z,18.40
2023-04-06T09:06:37.839Z,18.80
2023-04-06T09:09:04.849Z,19.20
2023-04-06T09:11:52.905Z,19.50
2023-04-06T09:14:38.988Z,19.90
2023-04-06T09:17:06.753Z,20.10
2023-04-06T09:19:33.954Z,20.30
2023-04-06T09:22:10.650Z,20.50
2023-04-06T09:24:53.585Z,20.80
2023-04-06T09:27:38.784Z,21.10
2023-04-06T09:30:15.049Z,21.40
2023-04-06T09:32:53.808Z,21.80
2023-04-06T09:35:22.108Z,22.20
2023-04-06T09:37:51.749Z,22.40
2023-04-06T09:40:20.144Z,22.60
2023-04-06T09:42:49.448Z,22.60
2023-04-06T09:45:16.659Z,22.50
2023-04-06T09:47:46.421Z,22.30
2023-04-06T09:50:15.279Z,22.10
2023-04-06T09:52:51.497Z,21.90
2023-04-06T09:55:34.829Z,21.90
2023-04-06T09:58:07.200Z,22.00
2023-04-06T10:00:54.676Z,22.50
2023-04-06T10:03:57.511Z,22.80
2023-04-06T10:06:28.388Z,23.00
2023-04-06T10:08:57.190Z,23.00
2023-04-06T10:11:24.446Z,23.00
2023-04-06T10:13:51.642Z,22.40
2023-04-06T10:16:19.246Z,22.00
2023-04-06T10:18:53.113Z,21.70
2023-04-06T10:21:28.232Z,21.40
2023-04-06T10:24:11.726Z,21.30
2023-04-06T10:26:38.824Z,21.30
2023-04-06T10:29:06.760Z,21.40
2023-04-06T10:31:33.878Z,21.60
2023-04-06T10:34:04.073Z,21.60
2023-04-06T10:36:35.740Z,21.50
2023-04-06T10:39:06.725Z,21.20
2023-04-06T10:41:46.710Z,20.80
2023-04-06T10:44:25.158Z,20.30
2023-04-06T10:46:58.840Z,19.80
2023-04-06T10:49:28.921Z,19.40
2023-04-06T10:51:57.939Z,19.00
2023-04-06T10:54:27.911Z,18.60
2023-04-06T10:56:55.957Z,18.30
2023-04-06T10:59:25.834Z,18.10
2023-04-06T11:01:54.052Z,17.90
2023-04-06T11:04:22.059Z,17.90
2023-04-06T11:06:51.222Z,17.80
2023-04-06T11:09:27.195Z,17.90
2023-04-06T11:11:54.668Z,17.90
2023-04-06T11:14:21.666Z,17.90
2023-04-06T11:16:52.888Z,17.90
2023-04-06T11:19:20.115Z,17.80
2023-04-06T11:21:50.004Z,17.80
2023-04-06T11:24:25.429Z,17.70
2023-04-06T11:27:01.967Z,17.60
2023-04-06T11:29:31.866Z,17.40
2023-04-06T11:32:06.866Z,17.20
2023-04-06T11:34:42.814Z,17.00
2023-04-06T11:37:13.024Z,16.80
2023-04-06T11:39:53.224Z,16.70
2023-04-06T11:42:29.120Z,16.60
2023-04-06T11:44:58.416Z,16.50
2023-04-06T11:47:35.162Z,16.40
2023-04-06T11:50:13.824Z,16.40
2023-04-06T11:52:43.221Z,16.40
2023-04-06T11:55:17.278Z,16.40
2023-04-06T11:57:46.060Z,16.40
2023-04-06T12:00:13.909Z,16.30
2023-04-06T12:02:46.252Z,16.20
2023-04-06T12:05:13.479Z,16.00
2023-04-06T12:10:09.411Z,15.80
2023-04-06T12:12:36.408Z,15.70
2023-04-06T12:15:03.692Z,15.50
2023-04-06T12:17:30.656Z,15.50
2023-04-06T12:20:05.310Z,15.50
2023-04-06T12:22:37.318Z,15.50
2023-04-06T12:25:04.783Z,15.70
2023-04-06T12:27:31.655Z,15.70
2023-04-06T12:29:58.542Z,15.80
2023-04-06T12:32:25.588Z,15.80
2023-04-06T12:34:54.290Z,15.80
2023-04-06T12:37:21.614Z,15.80
2023-04-06T12:39:48.496Z,15.90
2023-04-06T12:42:15.804Z,16.10
2023-04-06T12:44:43.744Z,16.10
2023-04-06T12:47:11.986Z,16.20
2023-04-06T12:49:39.057Z,16.30
2023-04-06T12:52:06.000Z,16.30
2023-04-06T12:54:33.033Z,16.30
2023-04-06T12:56:59.917Z,16.20
2023-04-06T12:59:26.976Z,16.00
2023-04-06T13:01:54.059Z,16.00
2023-04-06T13:04:21.008Z,15.90
2023-04-06T13:06:47.948Z,15.90
2023-04-06T13:09:14.983Z,15.80
2023-04-06T13:11:42.449Z,15.80
2023-04-06T13:14:09.592Z,15.70
2023-04-06T13:16:37.347Z,15.80
2023-04-06T13:19:04.288Z,16.00
2023-04-06T13:21:31.542Z,16.20
2023-04-06T13:23:58.404Z,16.50
2023-04-06T13:26:26.272Z,16.80
2023-04-06T13:28:53.193Z,17.10
2023-04-06T13:31:20.422Z,17.20
2023-04-06T13:33:47.413Z,17.30
2023-04-06T13:36:17.379Z,17.40
2023-04-06T13:38:45.238Z,17.50
2023-04-06T13:41:21.963Z,17.60
2023-04-06T13:43:49.254Z,17.60
2023-04-06T13:46:16.446Z,17.70
2023-04-06T13:48:44.426Z,17.80
2023-04-06T13:51:16.225Z,18.00
2023-04-06T13:53:43.146Z,17.90
2023-04-06T13:56:10.459Z,17.90
2023-04-06T13:58:37.609Z,17.80
2023-04-06T14:01:11.250Z,17.70
2023-04-06T14:03:40.412Z,17.60
2023-04-06T14:06:20.714Z,17.60
2023-04-06T14:08:48.221Z,17.60
2023-04-06T14:11:15.405Z,17.60
2023-04-06T14:13:42.907Z,17.60
2023-04-06T14:16:10.249Z,17.80
2023-04-06T14:18:38.168Z,18.20
2023-04-06T14:21:05.225Z,18.70
2023-04-06T14:23:33.805Z,19.00
2023-04-06T14:26:09.302Z,19.10
2023-04-06T14:28:37.408Z,19.10
2023-04-06T14:31:14.190Z,19.00
2023-04-06T14:33:42.413Z,18.80
2023-04-06T14:36:10.663Z,18.60
2023-04-06T14:38:39.377Z,18.30
2023-04-06T14:41:06.294Z,18.30
2023-04-06T14:43:33.328Z,18.60
2023-04-06T14:46:03.761Z,19.10
2023-04-06T14:48:30.737Z,19.90
2023-04-06T14:50:58.384Z,20.60
2023-04-06T14:53:25.613Z,21.10
2023-04-06T14:55:52.869Z,21.50
2023-04-06T14:58:21.399Z,21.80
2023-04-06T15:00:49.075Z,22.10
2023-04-06T15:03:17.180Z,22.40
2023-04-06T15:05:44.235Z,22.60
2023-04-06T15:08:11.156Z,22.70
2023-04-06T15:10:38.075Z,22.90
2023-04-06T15:13:05.081Z,23.00
2023-04-06T15:15:31.976Z,23.10
2023-04-06T15:17:59.117Z,23.00
2023-04-06T15:20:25.978Z,22.80
2023-04-06T15:22:52.796Z,22.40
2023-04-06T15:25:19.730Z,22.10
2023-04-06T15:27:46.673Z,21.80
2023-04-06T15:30:14.035Z,21.50
2023-04-06T15:32:40.882Z,21.20
2023-04-06T15:35:14.052Z,20.90
2023-04-06T15:37:40.980Z,20.60
2023-04-06T15:40:09.067Z,20.60
2023-04-06T15:42:35.894Z,20.70
2023-04-06T15:45:02.855Z,20.80
2023-04-06T15:47:29.762Z,21.00
2023-04-06T15:49:56.688Z,21.20
2023-04-06T15:52:23.693Z,21.20
2023-04-06T15:54:50.682Z,21.20
2023-04-06T15:57:17.698Z,21.20
2023-04-06T15:59:44.944Z,21.00
2023-04-06T16:02:11.999Z,20.80
2023-04-06T16:04:39.026Z,20.40
2023-04-06T16:07:06.118Z,20.00
2023-04-06T16:09:32.964Z,19.60
2023-04-06T16:11:59.809Z,19.30
2023-04-06T16:14:26.851Z,19.10
2023-04-06T16:16:54.887Z,18.90
2023-04-06T16:19:21.833Z,18.90
2023-04-06T16:21:48.776Z,19.10
2023-04-06T16:24:15.688Z,19.30
2023-04-06T16:26:44.346Z,19.40
2023-04-06T16:29:11.204Z,19.40
2023-04-06T16:31:38.258Z,19.30
2023-04-06T16:34:05.138Z,19.40
2023-04-06T16:36:33.673Z,19.60
2023-04-06T16:39:02.278Z,19.90
2023-04-06T16:41:29.374Z,20.30
2023-04-06T16:43:57.323Z,20.80
2023-04-06T16:46:35.870Z,21.20
2023-04-06T16:49:05.828Z,21.50
2023-04-06T16:51:33.168Z,21.90
2023-04-06T16:54:02.259Z,22.10
2023-04-06T16:56:29.384Z,22.30
2023-04-06T16:58:56.478Z,22.50
2023-04-06T17:01:26.676Z,22.50
2023-04-06T17:03:55.069Z,22.50
2023-04-06T17:06:23.102Z,22.40
2023-04-06T17:08:51.342Z,22.10
2023-04-06T17:11:23.484Z,21.70
2023-04-06T17:13:54.902Z,21.40
2023-04-06T17:16:21.854Z,20.90
2023-04-06T17:18:48.782Z,20.40
2023-04-06T17:21:16.963Z,19.90
2023-04-06T17:23:44.574Z,19.40
2023-04-06T17:26:11.703Z,18.90
2023-04-06T17:28:38.957Z,18.50
2023-04-06T17:31:11.528Z,18.00
2023-04-06T17:33:41.121Z,17.60
2023-04-06T17:36:10.905Z,17.20
2023-04-06T17:38:43.416Z,16.80
2023-04-06T17:41:12.697Z,16.50
2023-04-06T17:43:40.170Z,16.20
2023-04-06T17:46:07.254Z,15.90
2023-04-06T17:48:34.241Z,15.60
2023-04-06T17:51:01.296Z,15.30
2023-04-06T17:53:32.162Z,15.10
2023-04-06T17:56:03.734Z,14.90
2023-04-06T17:58:31.168Z,14.70
2023-04-06T18:00:58.390Z,14.50
2023-04-06T18:03:25.569Z,14.20
2023-04-06T18:05:52.591Z,14.00
2023-04-06T18:08:19.457Z,13.90
2023-04-06T18:10:48.284Z,13.70
2023-04-06T18:13:15.627Z,13.50
2023-04-06T18:15:42.582Z,13.40
2023-04-06T18:18:09.459Z,13.20
2023-04-06T18:20:41.451Z,13.10
2023-04-06T18:23:08.328Z,12.90
2023-04-06T18:25:39.627Z,12.80
2023-04-06T18:28:08.793Z,12.70
2023-04-06T18:30:36.706Z,12.60
2023-04-06T18:33:04.207Z,12.40
2023-04-06T18:35:31.172Z,12.30
2023-04-06T18:37:57.968Z,12.20
2023-04-06T18:40:39.205Z,12.00
2023-04-06T18:43:08.185Z,11.90
2023-04-06T18:45:38.949Z,11.90
2023-04-06T18:48:06.824Z,11.70
2023-04-06T18:50:34.106Z,11.60
2023-04-06T18:53:01.183Z,11.40
2023-04-06T18:55:28.319Z,11.30
2023-04-06T18:57:55.451Z,11.20
2023-04-06T19:00:22.320Z,11.10
2023-04-06T19:02:49.259Z,11.00
2023-04-06T19:05:16.599Z,10.90
2023-04-06T19:07:43.567Z,10.90
2023-04-06T19:10:11.037Z,10.80
2023-04-06T19:12:40.111Z,10.70
2023-04-06T19:15:08.411Z,10.60
2023-04-06T19:17:35.902Z,10.50
2023-04-06T19:20:03.102Z,10.50
2023-04-06T19:22:30.002Z,10.40
2023-04-06T19:24:57.146Z,10.30
2023-04-06T19:27:23.992Z,10.20
2023-04-06T19:29:50.866Z,10.10
2023-04-06T19:32:17.865Z,10.10
2023-04-06T19:34:44.766Z,10.00
2023-04-06T19:37:11.706Z,10.00
2023-04-06T19:39:38.798Z,9.90
2023-04-06T19:42:05.747Z,9.80
2023-04-06T19:44:32.676Z,9.80
2023-04-06T19:46:59.575Z,9.70
2023-04-06T19:49:28.339Z,9.60
2023-04-06T19:51:55.743Z,9.60
2023-04-06T19:54:23.707Z,9.50
2023-04-06T19:56:50.841Z,9.40
2023-04-06T19:59:17.899Z,9.40
2023-04-06T20:01:46.263Z,9.30
2023-04-06T20:04:13.559Z,9.30
2023-04-06T20:06:40.672Z,9.30
2023-04-06T20:09:07.939Z,9.20
2023-04-06T20:11:36.253Z,9.10
2023-04-06T20:14:03.273Z,9.10
2023-04-06T20:16:30.219Z,9.00
2023-04-06T20:18:57.137Z,9.00
2023-04-06T20:21:24.027Z,9.00
2023-04-06T20:23:50.997Z,8.90
2023-04-06T20:26:18.098Z,8.90
2023-04-06T20:28:45.364Z,8.90
2023-04-06T20:31:12.412Z,8.90
2023-04-06T20:33:40.080Z,8.90
2023-04-06T20:36:07.225Z,8.90
2023-04-06T20:38:34.293Z,8.90
2023-04-06T20:41:02.396Z,8.90
2023-04-06T20:43:30.215Z,8.80
2023-04-06T20:45:58.707Z,8.90
2023-04-06T20:48:26.441Z,8.80
2023-04-06T20:50:53.729Z,8.80
2023-04-06T20:53:20.896Z,8.80
2023-04-06T20:55:48.118Z,8.70
2023-04-06T20:58:20.698Z,8.70
2023-04-06T21:00:49.611Z,8.70
2023-04-06T21:03:17.794Z,8.70
2023-04-06T21:05:59.028Z,8.60
2023-04-06T21:08:25.867Z,8.60
2023-04-06T21:10:52.729Z,8.60
2023-04-06T21:13:19.664Z,8.50
2023-04-06T21:15:46.562Z,8.40
2023-04-06T21:18:13.496Z,8.40
2023-04-06T21:20:40.584Z,8.30
2023-04-06T21:23:07.524Z,8.20
2023-04-06T21:25:37.596Z,8.10
2023-04-06T21:28:05.253Z,8.10
2023-04-06T21:30:37.221Z,8.10
2023-04-06T21:33:07.577Z,8.10
2023-04-06T21:35:40.290Z,8.10
2023-04-06T21:38:08.220Z,8.00
2023-04-06T21:40:35.802Z,8.00
2023-04-06T21:43:03.246Z,8.00
2023-04-06T21:45:30.295Z,8.00
2023-04-06T21:47:57.187Z,8.00
2023-04-06T21:50:24.100Z,7.90
2023-04-06T21:52:51.098Z,8.00
2023-04-06T21:55:18.006Z,7.90
2023-04-06T21:57:45.046Z,7.90
2023-04-06T22:00:12.881Z,7.90
2023-04-06T22:02:41.258Z,7.90
2023-04-06T22:05:08.790Z,7.80
2023-04-06T22:07:36.022Z,7.80
2023-04-06T22:10:03.184Z,7.90
2023-04-06T22:12:30.367Z,7.90
2023-04-06T22:14:57.631Z,7.90
2023-04-06T22:17:24.654Z,8.00
2023-04-06T22:19:52.598Z,7.90
2023-04-06T22:22:19.546Z,7.90
2023-04-06T22:24:46.714Z,8.00
2023-04-06T22:27:13.614Z,8.00
2023-04-06T22:29:40.512Z,8.00
2023-04-06T22:32:07.358Z,8.10
2023-04-06T22:34:34.236Z,8.10
2023-04-06T22:37:01.231Z,8.10
2023-04-06T22:39:28.129Z,8.10
2023-04-06T22:41:54.990Z,8.10
2023-04-06T22:44:21.911Z,8.10
2023-04-06T22:46:48.986Z,8.20
2023-04-06T22:49:15.885Z,8.20
2023-04-06T22:51:42.708Z,8.20
2023-04-06T22:54:10.949Z,8.20
2023-04-06T22:56:38.001Z,8.20
2023-04-06T22:59:04.833Z,8.20
2023-04-06T23:01:31.823Z,8.20
2023-04-06T23:03:58.936Z,8.40
2023-04-06T23:06:27.223Z,8.30
2023-04-06T23:08:54.176Z,8.20
2023-04-06T23:11:22.252Z,8.20
2023-04-06T23:13:49.103Z,8.30
2023-04-06T23:16:16.113Z,8.20
2023-04-06T23:18:43.298Z,8.20
2023-04-06T23:21:10.369Z,8.20
2023-04-06T23:23:37.291Z,8.20
2023-04-06T23:26:04.371Z,8.10
2023-04-06T23:28:31.427Z,8.10
2023-04-06T23:30:58.268Z,8.10
2023-04-06T23:33:25.148Z,8.10
2023-04-06T23:35:52.198Z,8.10
2023-04-06T23:38:19.205Z,8.10
2023-04-06T23:40:46.268Z,8.10
2023-04-06T23:43:13.092Z,8.10
2023-04-06T23:45:42.308Z,8.10
2023-04-06T23:48:10.387Z,8.00
2023-04-06T23:50:37.672Z,8.10
2023-04-06T23:53:05.159Z,8.00
2023-04-06T23:55:32.123Z,8.00
2023-04-06T23:57:59.318Z,8.00
